Time;durP1;ratioP1;P1;durP2;ratioP2;P2;SDS_P1;SDS_P2;PMS_P1;PMS_P2;Temp;Humidity;BMP_temperature;BMP_pressure;BME280_temperature;BME280_humidity;BME280_pressure;Samples;Min_cycle;Max_cycle;Signal;HPM_P1;HPM_P2
2022/05/29 00:00:19;;;;;;;5.20;2.83;;;14.20;80.60;;;;;;5094176;28;20028;-14
2022/05/29 00:02:48;;;;;;;3.00;2.60;;;14.20;80.50;;;;;;5094287;28;20052;-13
2022/05/29 00:05:14;;;;;;;4.28;2.70;;;14.30;80.10;;;;;;5094047;28;20036;-12
2022/05/29 00:07:42;;;;;;;5.95;2.75;;;14.30;80.00;;;;;;5093951;28;20032;-13
2022/05/29 00:10:10;;;;;;;3.60;2.53;;;14.30;80.00;;;;;;5093772;28;20384;-13
2022/05/29 00:12:39;;;;;;;6.78;2.50;;;14.30;78.90;;;;;;5094189;28;20035;-13
2022/05/29 00:15:06;;;;;;;2.97;2.40;;;14.40;79.30;;;;;;5092914;28;20035;-12
2022/05/29 00:17:33;;;;;;;5.30;2.75;;;14.40;79.50;;;;;;5094093;28;20023;-13
2022/05/29 00:19:59;;;;;;;3.47;2.63;;;14.40;79.50;;;;;;5092642;28;20054;-13
2022/05/29 00:22:26;;;;;;;4.95;2.92;;;14.30;79.90;;;;;;5093799;28;20393;-13
2022/05/29 00:24:51;;;;;;;3.70;2.72;;;14.30;79.60;;;;;;5092816;28;20093;-13
2022/05/29 00:27:18;;;;;;;5.80;3.10;;;14.30;79.60;;;;;;5093576;28;20024;-13
2022/05/29 00:29:45;;;;;;;5.85;3.40;;;14.20;79.50;;;;;;5093836;28;20039;-13
2022/05/29 00:32:11;;;;;;;4.43;2.92;;;14.20;79.40;;;;;;5093348;28;20056;-13
2022/05/29 00:34:37;;;;;;;4.07;3.00;;;14.20;79.70;;;;;;5093220;28;20032;-13
2022/05/29 00:37:08;;;;;;;5.47;3.03;;;14.20;79.50;;;;;;5093507;28;20020;-13
2022/05/29 00:39:34;;;;;;;3.97;2.60;;;14.10;79.70;;;;;;5093365;28;20480;-12
2022/05/29 00:42:05;;;;;;;5.07;3.13;;;14.10;79.70;;;;;;5093780;28;20035;-13
2022/05/29 00:44:32;;;;;;;4.53;2.83;;;14.00;80.10;;;;;;5093224;28;20055;-13
2022/05/29 00:47:12;;;;;;;5.72;3.90;;;14.00;80.70;;;;;;5093230;28;20487;-12
2022/05/29 00:49:41;;;;;;;4.18;2.80;;;13.90;80.30;;;;;;5093422;28;20024;-13
2022/05/29 00:52:28;;;;;;;6.22;2.97;;;13.90;80.40;;;;;;5093578;28;20075;-13
2022/05/29 00:55:25;;;;;;;4.22;3.15;;;13.90;81.00;;;;;;5093253;28;20039;-13
2022/05/29 00:57:54;;;;;;;7.05;2.90;;;13.90;80.80;;;;;;5071153;28;20068;-13
2022/05/29 01:00:25;;;;;;;5.78;3.13;;;13.90;81.00;;;;;;5070776;28;20029;-13
2022/05/29 01:02:56;;;;;;;5.55;2.88;;;13.80;81.00;;;;;;5071219;28;20472;-14
2022/05/29 01:05:23;;;;;;;3.97;2.75;;;13.90;81.10;;;;;;5070912;28;20039;-14
2022/05/29 01:07:59;;;;;;;4.38;2.60;;;13.90;81.10;;;;;;5071029;28;20053;-14
2022/05/29 01:10:35;;;;;;;3.97;2.90;;;13.90;81.40;;;;;;5070809;28;20036;-14
2022/05/29 01:13:38;;;;;;;5.40;2.88;;;13.80;81.70;;;;;;5071051;28;20028;-13
2022/05/29 01:16:15;;;;;;;6.20;3.40;;;13.80;82.20;;;;;;5071092;28;20455;-15
2022/05/29 01:18:59;;;;;;;5.55;3.15;;;13.80;82.00;;;;;;5071544;28;20369;-13
2022/05/29 01:22:04;;;;;;;5.00;3.63;;;13.80;82.50;;;;;;5070852;28;20048;-12
2022/05/29 01:24:53;;;;;;;8.98;3.60;;;13.80;82.90;;;;;;5051084;28;20045;-13
2022/05/29 01:27:39;;;;;;;5.47;3.78;;;13.70;83.40;;;;;;5070887;28;20103;-13
2022/05/29 01:30:05;;;;;;;6.43;3.20;;;13.70;83.40;;;;;;5093042;28;20149;-13
2022/05/29 01:32:43;;;;;;;6.80;3.10;;;13.70;83.20;;;;;;5092960;28;20032;-13
2022/05/29 01:35:25;;;;;;;5.65;3.60;;;13.70;84.00;;;;;;5092945;28;20150;-12
2022/05/29 01:37:56;;;;;;;4.07;3.17;;;13.60;84.30;;;;;;5092864;28;20029;-12
2022/05/29 01:40:37;;;;;;;6.28;3.65;;;13.60;83.90;;;;;;5092611;28;20054;-13
2022/05/29 01:43:25;;;;;;;6.70;3.47;;;13.60;84.20;;;;;;5093871;28;20361;-12
2022/05/29 01:46:28;;;;;;;6.65;3.13;;;13.50;84.40;;;;;;5096644;28;20484;-12
2022/05/29 01:49:03;;;;;;;6.50;3.60;;;13.50;84.30;;;;;;5096487;28;20559;-14
2022/05/29 01:51:39;;;;;;;6.18;3.70;;;13.50;85.00;;;;;;5096547;28;20483;-13
2022/05/29 01:54:27;;;;;;;5.00;3.53;;;13.50;84.50;;;;;;5096475;28;20510;-13
2022/05/29 01:56:59;;;;;;;4.68;3.22;;;13.50;85.10;;;;;;5096477;28;20092;-13
2022/05/29 01:59:36;;;;;;;4.90;2.97;;;13.40;85.10;;;;;;5096452;28;20502;-13
2022/05/29 02:02:08;;;;;;;4.88;3.60;;;13.40;84.90;;;;;;5097555;28;20030;-12
2022/05/29 02:04:39;;;;;;;9.27;4.07;;;13.40;85.10;;;;;;5095916;28;20118;-13
2022/05/29 02:10:26;;;;;;;6.30;3.88;;;13.40;85.30;;;;;;5096560;28;20103;-12
2022/05/29 02:13:14;;;;;;;5.03;3.80;;;13.40;85.30;;;;;;5068499;28;20368;-13
2022/05/29 02:15:53;;;;;;;6.75;3.78;;;13.40;85.00;;;;;;5096128;28;20514;-13
2022/05/29 02:18:49;;;;;;;5.07;3.45;;;13.40;84.70;;;;;;5095831;28;20024;-12
2022/05/29 02:21:39;;;;;;;5.82;3.50;;;13.40;84.70;;;;;;5097042;28;20024;-13
2022/05/29 02:24:10;;;;;;;7.88;3.95;;;13.40;84.20;;;;;;5096292;28;20020;-14
2022/05/29 02:26:41;;;;;;;6.07;3.67;;;13.40;83.90;;;;;;5095916;28;20040;-13
2022/05/29 02:29:10;;;;;;;4.93;3.70;;;13.40;83.70;;;;;;5096061;28;20410;-12
2022/05/29 02:32:06;;;;;;;3.35;2.92;;;13.40;83.70;;;;;;5096079;28;20062;-13
2022/05/29 02:34:45;;;;;;;7.05;3.05;;;13.40;83.50;;;;;;5095389;28;20021;-13
2022/05/29 02:37:24;;;;;;;7.13;3.55;;;13.50;83.40;;;;;;5094457;28;20107;-13
2022/05/29 02:40:19;;;;;;;4.03;3.20;;;13.50;83.30;;;;;;5096255;28;20040;-12
2022/05/29 02:43:24;;;;;;;4.95;3.10;;;13.50;83.30;;;;;;5085769;28;20028;-13
2022/05/29 02:46:02;;;;;;;;;;;13.50;83.20;;;;;;5092040;28;20134;-12
2022/05/29 02:48:44;;;;;;;6.40;3.90;;;13.50;83.30;;;;;;5095472;28;19904;-12
2022/05/29 02:51:40;;;;;;;4.05;3.03;;;13.50;83.30;;;;;;5095425;28;20036;-12
2022/05/29 02:54:13;;;;;;;6.30;3.25;;;13.50;82.90;;;;;;5095075;28;20475;-12
2022/05/29 02:56:40;;;;;;;6.15;3.58;;;13.50;82.90;;;;;;5095638;28;20442;-12
2022/05/29 02:59:07;;;;;;;4.47;3.38;;;13.50;83.20;;;;;;5096020;28;20460;-12
2022/05/29 03:02:15;;;;;;;7.00;4.28;;;13.50;83.30;;;;;;5095245;28;20024;-12
2022/05/29 03:04:56;;;;;;;6.68;3.40;;;13.40;83.70;;;;;;5084506;28;20029;-12
2022/05/29 03:07:49;;;;;;;8.93;4.13;;;13.40;83.80;;;;;;5095585;28;20040;-13
2022/05/29 03:10:29;;;;;;;5.63;4.00;;;13.40;84.10;;;;;;5091421;28;20028;-12
2022/05/29 03:13:13;;;;;;;5.68;3.75;;;13.40;84.20;;;;;;5095402;28;20069;-13
2022/05/29 03:15:57;;;;;;;8.45;4.50;;;13.40;84.20;;;;;;5094955;28;20391;-11
2022/05/29 03:19:02;;;;;;;5.85;3.97;;;13.40;84.20;;;;;;5094651;28;20480;-13
2022/05/29 03:21:36;;;;;;;;;;;13.40;83.50;;;;;;5013201;28;20041;-12
2022/05/29 03:24:25;;;;;;;6.50;4.22;;;13.40;83.00;;;;;;5012784;28;19906;-12
2022/05/29 03:27:21;;;;;;;5.55;3.50;;;13.40;82.90;;;;;;5012908;28;20080;-13
2022/05/29 03:30:19;;;;;;;7.10;3.92;;;13.40;82.60;;;;;;5013020;28;20477;-13
2022/05/29 03:32:46;;;;;;;6.50;3.85;;;13.40;82.70;;;;;;5012815;28;20509;-12
2022/05/29 03:35:28;;;;;;;5.82;3.35;;;13.40;82.60;;;;;;5012744;28;20022;-12
2022/05/29 03:37:57;;;;;;;5.95;3.85;;;13.40;82.40;;;;;;5012517;28;20022;-12
2022/05/29 03:40:26;;;;;;;6.35;4.20;;;13.40;82.30;;;;;;5012537;28;20026;-12
2022/05/29 03:42:53;;;;;;;8.82;3.53;;;13.40;82.50;;;;;;5012424;28;20125;-12
2022/05/29 03:45:19;;;;;;;5.05;3.40;;;13.40;82.30;;;;;;5012223;28;20121;-12
2022/05/29 03:47:45;;;;;;;5.47;3.20;;;13.40;82.00;;;;;;5012456;28;20033;-12
2022/05/29 03:50:16;;;;;;;5.22;3.75;;;13.40;81.90;;;;;;5012197;28;20029;-13
2022/05/29 03:52:43;;;;;;;6.78;3.67;;;13.40;81.70;;;;;;5012483;28;20084;-12
2022/05/29 03:55:12;;;;;;;8.38;4.15;;;13.40;81.60;;;;;;5012505;28;20036;-11
2022/05/29 03:57:38;;;;;;;5.57;3.40;;;13.40;81.70;;;;;;5033077;28;20036;-11
2022/05/29 04:00:06;;;;;;;6.18;3.95;;;13.40;81.80;;;;;;5094077;28;20111;-12
2022/05/29 04:02:32;;;;;;;7.35;4.00;;;13.40;81.70;;;;;;5093743;28;20103;-12
2022/05/29 04:04:58;;;;;;;5.82;3.65;;;13.40;81.80;;;;;;5093859;28;20119;-11
2022/05/29 04:12:03;;;;;;;7.30;3.85;;;13.40;81.70;;;;;;5093392;28;20020;-13
2022/05/29 04:12:57;;;;;;;8.20;4.20;;;13.40;82.00;;;;;;5094264;28;20442;-10
2022/05/29 04:15:24;;;;;;;7.45;4.22;;;13.40;81.50;;;;;;5094248;28;20016;-9
2022/05/29 04:17:50;;;;;;;9.10;4.30;;;13.40;81.40;;;;;;5093793;28;20016;-10
2022/05/29 04:20:16;;;;;;;6.88;4.00;;;13.50;81.30;;;;;;5093386;28;20031;-10
2022/05/29 04:22:42;;;;;;;5.65;3.67;;;13.50;81.30;;;;;;5094044;28;20024;-10
2022/05/29 04:25:09;;;;;;;7.55;4.15;;;13.50;81.00;;;;;;5093908;28;20067;-10
2022/05/29 04:27:35;;;;;;;5.93;3.85;;;13.50;81.20;;;;;;5093836;28;20063;-10
2022/05/29 04:30:01;;;;;;;6.32;4.35;;;13.60;81.10;;;;;;5093727;28;20031;-11
2022/05/29 04:35:12;;;;;;;7.05;3.60;;;13.60;80.90;;;;;;5094000;28;20073;-10
2022/05/29 04:37:38;;;;;;;5.05;3.70;;;13.70;80.50;;;;;;5093915;28;20080;-10
2022/05/29 04:40:05;;;;;;;5.93;3.55;;;13.70;80.10;;;;;;5093631;28;20028;-10
2022/05/29 04:42:31;;;;;;;3.55;3.13;;;13.70;79.40;;;;;;5093459;28;20089;-10
2022/05/29 04:44:57;;;;;;;6.22;3.90;;;13.70;79.60;;;;;;5093350;28;20048;-10
2022/05/29 04:47:23;;;;;;;6.50;3.60;;;13.70;78.60;;;;;;5093293;28;20396;-11
2022/05/29 04:49:49;;;;;;;8.10;3.97;;;13.80;79.20;;;;;;5093646;28;20480;-10
2022/05/29 04:52:14;;;;;;;6.43;3.70;;;13.80;78.60;;;;;;5093514;28;20512;-11
2022/05/29 04:54:41;;;;;;;8.20;3.72;;;13.80;78.40;;;;;;5093233;28;20039;-10
2022/05/29 04:57:08;;;;;;;6.25;3.33;;;13.90;78.30;;;;;;5092110;28;20081;-10
2022/05/29 04:59:35;;;;;;;7.22;3.50;;;13.90;77.80;;;;;;5093275;28;20112;-10
2022/05/29 05:02:02;;;;;;;5.50;3.15;;;13.90;77.60;;;;;;5093225;28;20391;-11
2022/05/29 05:04:29;;;;;;;6.00;3.65;;;13.90;77.80;;;;;;5093158;28;20069;-10
2022/05/29 05:06:58;;;;;;;6.13;4.07;;;13.90;77.50;;;;;;5093062;28;20114;-10
2022/05/29 05:09:28;;;;;;;5.93;3.78;;;14.00;77.50;;;;;;5093078;28;20020;-10
2022/05/29 05:11:55;;;;;;;5.40;3.67;;;14.00;76.80;;;;;;5093222;28;20047;-11
2022/05/29 05:14:23;;;;;;;5.35;3.55;;;14.00;77.10;;;;;;5093143;28;20035;-10
2022/05/29 05:16:50;;;;;;;5.90;3.53;;;14.10;76.70;;;;;;5093321;28;20429;-10
2022/05/29 05:19:16;;;;;;;4.10;3.17;;;14.20;76.40;;;;;;5096923;28;20024;-11
2022/05/29 05:21:43;;;;;;;5.68;3.60;;;14.20;75.70;;;;;;5097140;28;20026;-10
2022/05/29 05:24:09;;;;;;;5.72;3.38;;;14.30;74.30;;;;;;5097053;28;20429;-10
2022/05/29 05:26:36;;;;;;;5.43;3.30;;;14.30;74.10;;;;;;5095660;28;20388;-10
2022/05/29 05:29:02;;;;;;;4.25;3.08;;;14.40;75.10;;;;;;5095788;28;20055;-10
2022/05/29 05:31:28;;;;;;;5.40;3.35;;;14.40;74.20;;;;;;5097266;28;20153;-9
2022/05/29 05:33:54;;;;;;;8.00;3.83;;;14.50;73.90;;;;;;5096947;28;20496;-10
2022/05/29 05:36:20;;;;;;;4.55;3.30;;;14.50;72.80;;;;;;5096607;28;20020;-12
2022/05/29 05:38:47;;;;;;;7.25;3.83;;;14.60;72.90;;;;;;5097129;28;20034;-13
2022/05/29 05:41:14;;;;;;;6.03;3.35;;;14.70;71.60;;;;;;5096755;28;20024;-10
2022/05/29 05:43:41;;;;;;;3.47;3.17;;;14.70;72.00;;;;;;5096823;28;20024;-10
2022/05/29 05:46:09;;;;;;;5.53;3.15;;;14.90;71.60;;;;;;5096656;28;20115;-11
2022/05/29 05:48:36;;;;;;;6.63;3.42;;;14.90;71.90;;;;;;5096458;28;20024;-11
2022/05/29 05:51:03;;;;;;;4.15;3.00;;;14.90;71.10;;;;;;5096508;28;20502;-10
2022/05/29 05:53:29;;;;;;;4.75;3.20;;;15.00;70.90;;;;;;5096423;28;20115;-10
2022/05/29 05:55:55;;;;;;;9.07;3.33;;;15.00;68.70;;;;;;5097165;28;20107;-11
2022/05/29 05:58:21;;;;;;;8.00;3.28;;;15.10;70.70;;;;;;5096479;28;20051;-11
2022/05/29 06:00:49;;;;;;;5.65;3.30;;;15.20;69.60;;;;;;5096701;28;20024;-10
2022/05/29 06:03:16;;;;;;;6.20;3.30;;;15.20;69.60;;;;;;5096632;28;20028;-10
2022/05/29 06:09:04;;;;;;;6.03;3.20;;;15.40;68.40;;;;;;5096492;28;20028;-10
2022/05/29 06:11:30;;;;;;;4.53;3.22;;;15.40;68.20;;;;;;5096155;28;20034;-10
2022/05/29 06:13:57;;;;;;;4.25;3.03;;;15.40;69.20;;;;;;5096438;28;20032;-10
2022/05/29 06:16:23;;;;;;;4.80;3.15;;;15.50;69.30;;;;;;5096200;28;20024;-11
2022/05/29 06:18:49;;;;;;;6.20;3.13;;;15.60;68.50;;;;;;5094819;28;20032;-11
2022/05/29 06:21:15;;;;;;;7.60;3.08;;;15.60;68.00;;;;;;5095899;28;20026;-11
2022/05/29 06:23:41;;;;;;;3.80;3.10;;;15.70;68.40;;;;;;5096119;28;20484;-11
2022/05/29 06:26:12;;;;;;;4.80;2.90;;;15.70;68.90;;;;;;5094935;28;20073;-11
2022/05/29 06:28:38;;;;;;;5.25;3.28;;;15.70;68.70;;;;;;5095915;28;20115;-12
2022/05/29 06:31:06;;;;;;;6.38;3.03;;;15.70;66.40;;;;;;5095362;28;20028;-12
2022/05/29 06:33:32;;;;;;;3.63;2.67;;;15.70;67.90;;;;;;5096114;28;20055;-12
2022/05/29 06:36:23;;;;;;;4.85;3.25;;;15.80;68.30;;;;;;5095636;28;20471;-11
2022/05/29 06:38:51;;;;;;;4.10;2.67;;;15.90;67.40;;;;;;5095989;28;20032;-11
2022/05/29 06:41:20;;;;;;;4.97;3.03;;;15.90;68.50;;;;;;5095901;28;20028;-11
2022/05/29 06:43:48;;;;;;;3.17;2.75;;;15.90;67.50;;;;;;5095395;28;20055;-11
2022/05/29 06:46:14;;;;;;;5.10;3.05;;;16.00;67.60;;;;;;5095288;28;20032;-12
2022/05/29 06:48:41;;;;;;;4.97;3.40;;;16.10;67.60;;;;;;5096109;28;20034;-12
2022/05/29 06:51:19;;;;;;;6.10;3.45;;;16.10;65.80;;;;;;5095648;28;20060;-12
2022/05/29 06:53:45;;;;;;;7.15;3.20;;;16.20;66.80;;;;;;5095588;28;20032;-12
2022/05/29 06:56:12;;;;;;;5.55;2.90;;;16.30;65.90;;;;;;5095645;28;20024;-12
2022/05/29 06:58:39;;;;;;;6.68;3.00;;;16.40;65.90;;;;;;5095563;28;20034;-12
2022/05/29 07:09:28;;;;;;;4.38;2.90;;;16.60;64.90;;;;;;5095757;28;20031;-11
2022/05/29 07:12:21;;;;;;;4.60;2.70;;;16.70;64.60;;;;;;5095026;28;20024;-12
2022/05/29 07:14:55;;;;;;;6.88;2.83;;;16.70;63.40;;;;;;5094381;28;20028;-11
2022/05/29 07:17:24;;;;;;;4.88;2.55;;;16.70;63.10;;;;;;5095250;28;20051;-11
2022/05/29 07:19:50;;;;;;;4.07;2.35;;;16.80;63.40;;;;;;5094750;28;20024;-11
2022/05/29 07:22:16;;;;;;;4.63;2.40;;;16.80;62.10;;;;;;5094595;28;20043;-11
2022/05/29 07:24:43;;;;;;;4.00;2.40;;;16.70;60.90;;;;;;5094785;28;20031;-12
2022/05/29 07:27:11;;;;;;;4.97;2.30;;;16.80;62.80;;;;;;5094639;28;20024;-12
2022/05/29 07:29:36;;;;;;;4.22;2.20;;;16.80;60.90;;;;;;5094732;28;20115;-12
2022/05/29 07:32:04;;;;;;;6.25;2.67;;;16.80;62.50;;;;;;5094946;28;20056;-12
2022/05/29 07:34:30;;;;;;;2.40;2.08;;;16.80;61.90;;;;;;5095000;28;20032;-12
2022/05/29 07:37:08;;;;;;;3.15;2.20;;;16.90;63.80;;;;;;5094490;28;20028;-11
2022/05/29 07:39:37;;;;;;;2.88;2.03;;;16.90;60.40;;;;;;5094581;28;20479;-12
2022/05/29 07:44:51;;;;;;;2.60;2.20;;;17.10;59.60;;;;;;5094394;28;20094;-11
2022/05/29 07:47:17;;;;;;;4.35;2.22;;;17.20;59.50;;;;;;5094239;28;20472;-11
2022/05/29 07:49:43;;;;;;;4.95;2.20;;;17.30;60.60;;;;;;5094204;28;20099;-11
2022/05/29 07:52:09;;;;;;;2.25;1.85;;;17.40;59.30;;;;;;5094226;28;20475;-12
2022/05/29 07:54:35;;;;;;;5.07;2.40;;;17.40;59.00;;;;;;5094068;28;20084;-11
2022/05/29 07:57:01;;;;;;;4.00;2.10;;;17.60;61.00;;;;;;5094471;28;20016;-12
2022/05/29 07:59:27;;;;;;;3.92;2.25;;;17.70;60.40;;;;;;5094702;28;20479;-12
2022/05/29 08:01:53;;;;;;;4.55;2.15;;;17.90;59.00;;;;;;5094076;28;20035;-12
2022/05/29 08:04:19;;;;;;;3.67;2.10;;;18.00;58.60;;;;;;5093773;28;20035;-13
2022/05/29 08:06:44;;;;;;;2.60;2.30;;;18.00;59.00;;;;;;5094232;28;20031;-12
2022/05/29 08:09:10;;;;;;;3.63;2.10;;;18.00;57.50;;;;;;5093885;28;20036;-11
2022/05/29 08:11:36;;;;;;;2.30;2.13;;;18.00;57.80;;;;;;5093015;28;20024;-12
2022/05/29 08:14:04;;;;;;;3.50;2.35;;;17.90;57.00;;;;;;5094164;28;20395;-11
2022/05/29 08:16:30;;;;;;;3.88;2.10;;;18.00;58.00;;;;;;5093617;28;20032;-11
2022/05/29 08:18:56;;;;;;;3.83;2.30;;;18.10;56.10;;;;;;5093859;28;20118;-12
2022/05/29 08:21:22;;;;;;;4.25;2.10;;;18.30;56.20;;;;;;5093633;28;20024;-12
2022/05/29 08:32:01;;;;;;;4.18;1.95;;;18.50;55.50;;;;;;5094071;28;20028;-12
2022/05/29 08:34:27;;;;;;;3.58;1.90;;;18.50;54.90;;;;;;5093237;28;20024;-12
2022/05/29 08:36:55;;;;;;;3.55;2.10;;;18.40;55.00;;;;;;5093435;28;20040;-13
2022/05/29 08:39:22;;;;;;;3.92;2.05;;;18.40;54.00;;;;;;5093451;28;20028;-11
2022/05/29 08:41:52;;;;;;;3.17;1.73;;;18.30;53.80;;;;;;5093455;28;20483;-13
2022/05/29 08:44:29;;;;;;;6.47;3.53;;;18.30;54.80;;;;;;5093636;28;20048;-12
2022/05/29 08:47:02;;;;;;;4.32;2.60;;;18.30;54.10;;;;;;5093654;28;20085;-11
2022/05/29 08:49:32;;;;;;;2.33;2.13;;;18.40;57.10;;;;;;5093639;28;20487;-12
2022/05/29 08:52:22;;;;;;;2.40;1.73;;;18.40;55.00;;;;;;5093431;28;20331;-12
2022/05/29 08:55:27;;;;;;;6.47;2.75;;;18.20;55.50;;;;;;5094121;28;20031;-12
2022/05/29 08:58:11;;;;;;;4.45;1.83;;;18.30;55.30;;;;;;5093235;28;20361;-12
2022/05/29 09:00:46;;;;;;;2.70;2.10;;;18.40;56.70;;;;;;5093422;28;20114;-12
2022/05/29 09:03:43;;;;;;;2.78;1.98;;;18.60;56.50;;;;;;5093544;28;20115;-12
2022/05/29 09:06:18;;;;;;;4.25;2.03;;;18.80;55.30;;;;;;5093169;28;20024;-12
2022/05/29 09:09:13;;;;;;;3.67;1.92;;;19.10;54.80;;;;;;5093211;28;20567;-13
2022/05/29 09:11:57;;;;;;;4.30;2.00;;;19.30;55.30;;;;;;5054984;28;20029;-12
2022/05/29 09:14:43;;;;;;;3.72;2.40;;;19.50;54.00;;;;;;5093197;28;20360;-12
2022/05/29 09:17:29;;;;;;;3.60;2.10;;;19.70;53.20;;;;;;5093417;28;20036;-12
2022/05/29 09:20:16;;;;;;;5.05;2.03;;;20.00;50.20;;;;;;5093216;28;20047;-10
2022/05/29 09:22:47;;;;;;;3.47;2.20;;;20.10;49.00;;;;;;5093088;28;20483;-13
2022/05/29 09:25:31;;;;;;;5.18;3.10;;;19.90;49.60;;;;;;5092939;28;20024;-13
2022/05/29 09:28:01;;;;;;;4.50;2.97;;;19.80;50.40;;;;;;5093153;28;20506;-13
2022/05/29 09:30:29;;;;;;;5.75;3.17;;;19.70;51.00;;;;;;5093084;28;20031;-13
2022/05/29 09:33:07;;;;;;;6.30;2.92;;;19.70;52.20;;;;;;5092898;28;20119;-12
2022/05/29 09:35:33;;;;;;;4.57;2.80;;;19.70;49.30;;;;;;5092835;28;20028;-12
2022/05/29 09:38:25;;;;;;;3.85;2.55;;;19.70;50.70;;;;;;5092842;28;20122;-13
2022/05/29 09:41:21;;;;;;;9.40;3.17;;;19.70;51.10;;;;;;5093351;28;20107;-12
2022/05/29 09:44:04;;;;;;;7.00;3.50;;;19.90;50.60;;;;;;5092943;28;20067;-12
2022/05/29 09:46:39;;;;;;;5.53;3.33;;;20.20;50.10;;;;;;5092669;28;20024;-12
2022/05/29 09:52:17;;;;;;;7.38;3.70;;;20.60;49.50;;;;;;5093188;28;20077;-11
2022/05/29 09:54:51;;;;;;;5.72;2.97;;;20.60;47.50;;;;;;5092173;28;20396;-12
2022/05/29 09:57:23;;;;;;;5.95;2.70;;;20.40;47.30;;;;;;5091486;28;20445;-12
2022/05/29 09:59:53;;;;;;;7.20;4.45;;;20.20;48.00;;;;;;5091500;28;20020;-11
2022/05/29 10:02:28;;;;;;;13.63;8.85;;;19.90;48.60;;;;;;5092410;28;20027;-12
2022/05/29 10:05:00;;;;;;;11.98;7.07;;;19.60;49.50;;;;;;5094095;28;20112;-12
2022/05/29 10:07:41;;;;;;;5.38;2.80;;;19.50;49.80;;;;;;5096643;28;20028;-12
2022/05/29 10:10:13;;;;;;;5.47;3.10;;;19.40;51.90;;;;;;5096859;28;20028;-12
2022/05/29 10:12:46;;;;;;;3.60;2.72;;;19.40;51.50;;;;;;5096253;28;20024;-11
2022/05/29 10:15:32;;;;;;;5.80;3.90;;;19.40;49.70;;;;;;5096182;28;20016;-12
2022/05/29 10:18:01;;;;;;;5.32;3.00;;;19.40;49.40;;;;;;5096130;28;20116;-12
2022/05/29 10:20:32;;;;;;;5.00;2.70;;;19.50;49.80;;;;;;5096029;28;20114;-12
2022/05/29 10:23:29;;;;;;;2.78;1.85;;;19.50;50.30;;;;;;5094776;28;20027;-12
2022/05/29 10:25:59;;;;;;;2.85;2.03;;;19.60;50.90;;;;;;5088529;28;20075;-12
2022/05/29 10:28:30;;;;;;;2.50;1.75;;;19.80;48.50;;;;;;5096045;28;20032;-12
2022/05/29 10:31:03;;;;;;;3.33;2.03;;;19.80;48.80;;;;;;5095930;28;20108;-11
2022/05/29 10:33:31;;;;;;;2.90;1.77;;;20.00;49.60;;;;;;5096165;28;20074;-11
2022/05/29 10:36:12;;;;;;;3.80;2.00;;;20.10;47.70;;;;;;5095760;28;20028;-11
2022/05/29 10:38:38;;;;;;;4.03;1.80;;;20.20;49.20;;;;;;5095868;28;20028;-11
2022/05/29 10:41:06;;;;;;;5.18;2.10;;;20.30;47.90;;;;;;5095775;28;20024;-12
2022/05/29 10:43:37;;;;;;;3.78;2.00;;;20.40;48.70;;;;;;5096615;28;20032;-11
2022/05/29 10:46:17;;;;;;;3.70;1.80;;;20.40;48.80;;;;;;5094517;28;20442;-11
2022/05/29 10:49:01;;;;;;;2.83;1.60;;;20.40;46.90;;;;;;5095894;28;20024;-12
2022/05/29 10:51:39;;;;;;;3.45;1.98;;;20.40;46.60;;;;;;5096244;28;20479;-12
2022/05/29 10:54:30;;;;;;;4.32;1.90;;;20.10;46.10;;;;;;5095498;28;20020;-11
2022/05/29 10:57:14;;;;;;;2.85;1.80;;;19.90;49.40;;;;;;5095433;28;20089;-12
2022/05/29 11:00:06;;;;;;;1.70;1.60;;;19.80;49.00;;;;;;5095742;28;20510;-11
2022/05/29 11:05:37;;;;;;;2.53;2.03;;;19.50;48.90;;;;;;5095373;28;20061;-12
2022/05/29 11:08:40;;;;;;;2.70;1.80;;;19.40;49.10;;;;;;5095340;28;20024;-12
2022/05/29 11:11:17;;;;;;;4.35;1.90;;;19.50;48.70;;;;;;5095042;28;20415;-11
2022/05/29 11:14:03;;;;;;;3.22;2.03;;;19.60;48.00;;;;;;5095390;28;20093;-11
2022/05/29 11:17:05;;;;;;;2.05;1.80;;;19.80;48.40;;;;;;5094690;28;20087;-12
2022/05/29 11:19:46;;;;;;;3.05;1.52;;;19.80;48.50;;;;;;5095002;28;20043;-12
2022/05/29 11:22:45;;;;;;;2.70;1.95;;;19.70;50.60;;;;;;5095226;28;20430;-12
2022/05/29 11:26:09;;;;;;;4.30;2.03;;;19.80;49.70;;;;;;5094681;28;20024;-12
2022/05/29 11:28:41;;;;;;;3.05;1.65;;;19.70;50.50;;;;;;5012411;28;20044;-12
2022/05/29 11:31:38;;;;;;;3.42;2.00;;;19.70;49.50;;;;;;5094613;28;20043;-11
2022/05/29 11:34:52;;;;;;;2.45;1.80;;;19.80;49.50;;;;;;5094943;28;20077;-12
2022/05/29 11:37:35;;;;;;;3.33;1.88;;;19.80;49.30;;;;;;5022411;28;20026;-13
2022/05/29 11:40:11;;;;;;;2.20;2.00;;;19.70;50.00;;;;;;5094688;28;20016;-12
2022/05/29 11:43:03;;;;;;;3.75;1.83;;;19.80;49.90;;;;;;5094607;28;20052;-12
2022/05/29 11:51:45;;;;;;;3.63;1.95;;;19.50;49.40;;;;;;5094759;28;20058;-11
2022/05/29 11:54:20;;;;;;;4.63;2.13;;;19.50;51.00;;;;;;5094685;28;20032;-12
2022/05/29 11:56:57;;;;;;;2.25;1.95;;;19.50;50.50;;;;;;5094553;28;20034;-13
2022/05/29 11:59:26;;;;;;;4.00;2.15;;;19.50;49.20;;;;;;5094530;28;20110;-12
2022/05/29 12:02:18;;;;;;;3.15;2.03;;;19.60;49.90;;;;;;5094436;28;20024;-12
2022/05/29 12:05:03;;;;;;;3.17;2.13;;;19.60;49.70;;;;;;5094323;28;20052;-11
2022/05/29 12:08:10;;;;;;;3.25;2.10;;;19.60;50.70;;;;;;5094263;28;20105;-12
2022/05/29 12:11:17;;;;;;;3.55;2.20;;;19.60;49.80;;;;;;5012018;28;20030;-12
2022/05/29 12:14:15;;;;;;;4.15;2.30;;;19.40;49.30;;;;;;5011823;28;20041;-11
2022/05/29 12:16:47;;;;;;;4.00;2.13;;;19.20;49.80;;;;;;5011987;28;20445;-11
2022/05/29 12:19:19;;;;;;;3.90;1.63;;;19.20;50.70;;;;;;5011957;28;20025;-11
2022/05/29 12:21:59;;;;;;;3.35;2.03;;;19.20;50.20;;;;;;5011854;28;20034;-12
2022/05/29 12:24:29;;;;;;;2.80;2.40;;;19.20;51.80;;;;;;5012021;28;20026;-11
2022/05/29 12:27:23;;;;;;;2.53;2.10;;;19.20;52.90;;;;;;5011478;28;20112;-12
2022/05/29 12:29:54;;;;;;;4.55;2.10;;;19.20;53.50;;;;;;5011916;28;20028;-11
2022/05/29 12:32:20;;;;;;;2.72;1.95;;;19.30;53.30;;;;;;5011479;28;20069;-11
2022/05/29 12:34:57;;;;;;;2.25;1.85;;;19.30;53.80;;;;;;5011867;28;20064;-11
2022/05/29 12:37:51;;;;;;;2.25;1.70;;;19.40;53.70;;;;;;4995242;28;20041;-11
2022/05/29 12:40:28;;;;;;;;;;;19.50;53.10;;;;;;5011931;28;20034;-12
2022/05/29 12:43:08;;;;;;;1.73;1.60;;;19.50;53.30;;;;;;5011540;28;19905;-12
2022/05/29 12:45:51;;;;;;;2.88;1.60;;;19.50;54.10;;;;;;5011672;28;20077;-12
2022/05/29 12:48:48;;;;;;;3.85;1.58;;;19.50;53.50;;;;;;5093486;28;20051;-12
2022/05/29 12:51:16;;;;;;;3.60;1.95;;;19.50;53.60;;;;;;5057282;28;20551;-12
2022/05/29 12:54:28;;;;;;;1.67;1.55;;;19.40;53.70;;;;;;5093602;28;20032;-13
2022/05/29 12:57:12;;;;;;;1.63;1.52;;;19.40;54.80;;;;;;5057518;28;20039;-12
2022/05/29 12:59:59;;;;;;;1.48;1.38;;;19.40;53.80;;;;;;5093610;28;20070;-11
2022/05/29 13:02:25;;;;;;;1.90;1.70;;;19.50;53.60;;;;;;5093131;28;20024;-12
2022/05/29 13:05:19;;;;;;;4.15;1.60;;;19.50;53.30;;;;;;5093421;28;20077;-12
2022/05/29 13:08:00;;;;;;;;;;;19.60;53.10;;;;;;5093632;28;20492;-12
2022/05/29 13:10:33;;;;;;;3.35;1.50;;;19.60;53.50;;;;;;5091838;28;20325;-13
2022/05/29 13:13:19;;;;;;;1.73;1.17;;;19.60;53.70;;;;;;5093472;28;20031;-12
2022/05/29 13:15:47;;;;;;;2.22;1.25;;;19.60;53.90;;;;;;5093475;28;20081;-12
2022/05/29 13:21:19;;;;;;;1.60;1.40;;;19.70;54.10;;;;;;5093158;28;20031;-11
2022/05/29 13:23:52;;;;;;;1.67;1.40;;;19.80;54.10;;;;;;5093091;28;20020;-12
2022/05/29 13:26:30;;;;;;;3.78;1.92;;;19.90;54.20;;;;;;5093005;28;20036;-12
2022/05/29 13:29:01;;;;;;;2.20;1.60;;;19.90;54.10;;;;;;5093477;28;20111;-14
2022/05/29 13:31:31;;;;;;;3.42;2.20;;;19.90;54.00;;;;;;5093314;28;20109;-13
2022/05/29 13:34:25;;;;;;;2.97;2.17;;;19.80;51.80;;;;;;5093195;28;20020;-13
2022/05/29 13:36:53;;;;;;;2.72;1.98;;;19.50;52.80;;;;;;5092954;28;20024;-13
2022/05/29 13:39:25;;;;;;;3.72;2.10;;;19.20;54.00;;;;;;5095318;28;20020;-13
2022/05/29 13:42:01;;;;;;;3.75;2.25;;;19.10;54.70;;;;;;5097164;28;20027;-12
2022/05/29 13:44:42;;;;;;;3.15;2.10;;;19.10;55.30;;;;;;5096926;28;20131;-12
2022/05/29 13:47:20;;;;;;;4.97;2.25;;;19.00;55.50;;;;;;5096989;28;20040;-13
2022/05/29 13:49:49;;;;;;;9.05;2.33;;;18.90;54.30;;;;;;5096844;28;20049;-12
2022/05/29 13:52:20;;;;;;;2.55;1.92;;;18.90;54.20;;;;;;5096694;28;20028;-10
2022/05/29 13:55:00;;;;;;;7.30;2.22;;;18.80;55.00;;;;;;5096822;28;20044;-13
2022/05/29 14:06:26;;;;;;;2.75;2.17;;;18.50;55.00;;;;;;5096214;28;20097;-12
2022/05/29 14:09:18;;;;;;;3.72;2.15;;;18.50;55.70;;;;;;5096354;28;20066;-13
2022/05/29 14:11:44;;;;;;;3.53;2.40;;;18.40;57.80;;;;;;5059921;28;20052;-14
2022/05/29 14:14:34;;;;;;;4.03;2.35;;;18.40;57.70;;;;;;5096516;28;20024;-12
2022/05/29 14:17:01;;;;;;;3.97;2.45;;;18.40;57.50;;;;;;5096518;28;20048;-14
2022/05/29 14:20:09;;;;;;;3.10;2.50;;;18.50;58.30;;;;;;5096419;28;20047;-13
2022/05/29 14:22:46;;;;;;;5.60;2.50;;;18.40;59.50;;;;;;5095910;28;20024;-13
2022/05/29 14:25:23;;;;;;;2.85;2.47;;;18.40;59.80;;;;;;5095997;28;20024;-11